sensor_id;sensor_type;location;lat;lon;timestamp;P1;durP1;ratioP1;P2;durP2;ratioP2
48367;SDS011;34173;47.446;18.912;2023-07-31T00:00:55;6.47;;;4.20;;
48367;SDS011;34173;47.446;18.912;2023-07-31T00:03:23;6.10;;;4.15;;
48367;SDS011;34173;47.446;18.912;2023-07-31T00:05:51;6.07;;;4.30;;
48367;SDS011;34173;47.446;18.912;2023-07-31T00:08:18;6.80;;;4.53;;
48367;SDS011;34173;47.446;18.912;2023-07-31T00:10:46;6.43;;;4.90;;
48367;SDS011;34173;47.446;18.912;2023-07-31T00:13:13;6.45;;;4.82;;
48367;SDS011;34173;47.446;18.912;2023-07-31T00:15:41;6.28;;;4.22;;
48367;SDS011;34173;47.446;18.912;2023-07-31T00:18:09;7.43;;;4.72;;
48367;SDS011;34173;47.446;18.912;2023-07-31T00:20:36;6.50;;;4.32;;
48367;SDS011;34173;47.446;18.912;2023-07-31T00:23:04;5.95;;;4.32;;
48367;SDS011;34173;47.446;18.912;2023-07-31T00:25:32;6.53;;;3.83;;
48367;SDS011;34173;47.446;18.912;2023-07-31T00:27:59;6.20;;;4.07;;
48367;SDS011;34173;47.446;18.912;2023-07-31T00:30:26;6.78;;;4.40;;
48367;SDS011;34173;47.446;18.912;2023-07-31T00:32:54;6.97;;;4.53;;
48367;SDS011;34173;47.446;18.912;2023-07-31T00:35:22;7.18;;;4.40;;
48367;SDS011;34173;47.446;18.912;2023-07-31T00:37:50;8.70;;;5.12;;
48367;SDS011;34173;47.446;18.912;2023-07-31T00:40:17;7.50;;;4.72;;
48367;SDS011;34173;47.446;18.912;2023-07-31T00:42:45;7.22;;;4.95;;
48367;SDS011;34173;47.446;18.912;2023-07-31T00:45:14;7.10;;;4.80;;
48367;SDS011;34173;47.446;18.912;2023-07-31T00:47:42;6.30;;;4.70;;
48367;SDS011;34173;47.446;18.912;2023-07-31T00:50:09;7.67;;;4.80;;
48367;SDS011;34173;47.446;18.912;2023-07-31T00:52:38;7.13;;;4.70;;
48367;SDS011;34173;47.446;18.912;2023-07-31T00:55:06;7.53;;;4.87;;
48367;SDS011;34173;47.446;18.912;2023-07-31T00:57:34;7.00;;;4.62;;
48367;SDS011;34173;47.446;18.912;2023-07-31T01:00:02;6.37;;;4.40;;
48367;SDS011;34173;47.446;18.912;2023-07-31T01:02:31;6.37;;;4.68;;
48367;SDS011;34173;47.446;18.912;2023-07-31T01:04:58;6.62;;;4.75;;
48367;SDS011;34173;47.446;18.912;2023-07-31T01:07:31;6.80;;;4.40;;
48367;SDS011;34173;47.446;18.912;2023-07-31T01:10:16;7.12;;;4.40;;
48367;SDS011;34173;47.446;18.912;2023-07-31T01:12:48;7.30;;;4.40;;
48367;SDS011;34173;47.446;18.912;2023-07-31T01:15:17;6.22;;;4.22;;
48367;SDS011;34173;47.446;18.912;2023-07-31T01:17:45;7.35;;;4.40;;
48367;SDS011;34173;47.446;18.912;2023-07-31T01:20:22;6.50;;;4.03;;
48367;SDS011;34173;47.446;18.912;2023-07-31T01:22:58;7.78;;;4.40;;
48367;SDS011;34173;47.446;18.912;2023-07-31T01:25:45;7.03;;;4.30;;
48367;SDS011;34173;47.446;18.912;2023-07-31T01:28:27;6.37;;;4.60;;
48367;SDS011;34173;47.446;18.912;2023-07-31T01:31:00;6.30;;;4.20;;
48367;SDS011;34173;47.446;18.912;2023-07-31T01:33:30;6.07;;;4.20;;
48367;SDS011;34173;47.446;18.912;2023-07-31T01:35:57;7.00;;;4.20;;
48367;SDS011;34173;47.446;18.912;2023-07-31T01:38:25;7.40;;;4.33;;
48367;SDS011;34173;47.446;18.912;2023-07-31T01:40:53;6.28;;;4.20;;
48367;SDS011;34173;47.446;18.912;2023-07-31T01:43:25;6.15;;;4.20;;
48367;SDS011;34173;47.446;18.912;2023-07-31T01:45:53;6.60;;;4.20;;
48367;SDS011;34173;47.446;18.912;2023-07-31T01:48:20;6.20;;;3.80;;
48367;SDS011;34173;47.446;18.912;2023-07-31T01:50:48;5.60;;;3.60;;
48367;SDS011;34173;47.446;18.912;2023-07-31T01:53:15;7.00;;;3.90;;
48367;SDS011;34173;47.446;18.912;2023-07-31T01:55:43;5.20;;;3.40;;
48367;SDS011;34173;47.446;18.912;2023-07-31T01:58:10;6.10;;;3.50;;
48367;SDS011;34173;47.446;18.912;2023-07-31T02:00:39;5.72;;;3.45;;
48367;SDS011;34173;47.446;18.912;2023-07-31T02:03:07;6.10;;;3.22;;
48367;SDS011;34173;47.446;18.912;2023-07-31T02:05:35;5.40;;;2.97;;
48367;SDS011;34173;47.446;18.912;2023-07-31T02:08:02;4.43;;;2.70;;
48367;SDS011;34173;47.446;18.912;2023-07-31T02:10:33;4.28;;;2.60;;
48367;SDS011;34173;47.446;18.912;2023-07-31T02:13:00;4.72;;;2.70;;
48367;SDS011;34173;47.446;18.912;2023-07-31T02:15:27;5.57;;;2.72;;
48367;SDS011;34173;47.446;18.912;2023-07-31T02:17:55;5.75;;;2.70;;
48367;SDS011;34173;47.446;18.912;2023-07-31T02:20:23;5.00;;;2.70;;
48367;SDS011;34173;47.446;18.912;2023-07-31T02:22:50;4.57;;;2.40;;
48367;SDS011;34173;47.446;18.912;2023-07-31T02:25:19;4.82;;;2.50;;
48367;SDS011;34173;47.446;18.912;2023-07-31T02:27:46;4.37;;;2.50;;
48367;SDS011;34173;47.446;18.912;2023-07-31T02:30:14;4.25;;;2.50;;
48367;SDS011;34173;47.446;18.912;2023-07-31T02:32:41;5.03;;;2.50;;
48367;SDS011;34173;47.446;18.912;2023-07-31T02:35:09;4.10;;;2.60;;
48367;SDS011;34173;47.446;18.912;2023-07-31T02:37:38;5.37;;;2.80;;
48367;SDS011;34173;47.446;18.912;2023-07-31T02:40:06;5.20;;;2.37;;
48367;SDS011;34173;47.446;18.912;2023-07-31T02:42:34;4.12;;;2.20;;
48367;SDS011;34173;47.446;18.912;2023-07-31T02:45:01;4.35;;;2.47;;
48367;SDS011;34173;47.446;18.912;2023-07-31T02:47:29;4.30;;;2.53;;
48367;SDS011;34173;47.446;18.912;2023-07-31T02:49:57;3.90;;;2.50;;
48367;SDS011;34173;47.446;18.912;2023-07-31T02:52:24;4.12;;;2.40;;
48367;SDS011;34173;47.446;18.912;2023-07-31T02:54:52;4.80;;;2.43;;
48367;SDS011;34173;47.446;18.912;2023-07-31T02:57:20;4.00;;;2.33;;
48367;SDS011;34173;47.446;18.912;2023-07-31T02:59:47;3.72;;;2.17;;
48367;SDS011;34173;47.446;18.912;2023-07-31T03:02:15;6.00;;;2.37;;
48367;SDS011;34173;47.446;18.912;2023-07-31T03:04:42;3.78;;;2.30;;
48367;SDS011;34173;47.446;18.912;2023-07-31T03:07:10;4.43;;;2.22;;
48367;SDS011;34173;47.446;18.912;2023-07-31T03:09:38;4.30;;;2.40;;
48367;SDS011;34173;47.446;18.912;2023-07-31T03:12:05;4.68;;;2.28;;
48367;SDS011;34173;47.446;18.912;2023-07-31T03:14:34;4.45;;;2.10;;
48367;SDS011;34173;47.446;18.912;2023-07-31T03:17:02;4.70;;;2.47;;
48367;SDS011;34173;47.446;18.912;2023-07-31T03:19:30;4.85;;;2.20;;
48367;SDS011;34173;47.446;18.912;2023-07-31T03:21:59;4.72;;;2.10;;
48367;SDS011;34173;47.446;18.912;2023-07-31T03:24:28;4.47;;;2.30;;
48367;SDS011;34173;47.446;18.912;2023-07-31T03:26:56;4.25;;;2.08;;
48367;SDS011;34173;47.446;18.912;2023-07-31T03:29:23;5.32;;;2.28;;
48367;SDS011;34173;47.446;18.912;2023-07-31T03:31:51;5.47;;;2.30;;
48367;SDS011;34173;47.446;18.912;2023-07-31T03:34:20;4.85;;;2.22;;
48367;SDS011;34173;47.446;18.912;2023-07-31T03:36:47;5.18;;;2.03;;
48367;SDS011;34173;47.446;18.912;2023-07-31T03:39:15;5.12;;;2.22;;
48367;SDS011;34173;47.446;18.912;2023-07-31T03:41:43;5.15;;;2.12;;
48367;SDS011;34173;47.446;18.912;2023-07-31T03:44:10;4.70;;;2.08;;
48367;SDS011;34173;47.446;18.912;2023-07-31T03:46:38;4.60;;;2.05;;
48367;SDS011;34173;47.446;18.912;2023-07-31T03:49:06;4.85;;;2.10;;
48367;SDS011;34173;47.446;18.912;2023-07-31T03:51:34;5.05;;;2.17;;
48367;SDS011;34173;47.446;18.912;2023-07-31T03:54:02;4.78;;;2.30;;
48367;SDS011;34173;47.446;18.912;2023-07-31T03:56:29;4.55;;;2.00;;
48367;SDS011;34173;47.446;18.912;2023-07-31T03:59:00;6.07;;;2.15;;
48367;SDS011;34173;47.446;18.912;2023-07-31T04:01:28;5.30;;;2.20;;
48367;SDS011;34173;47.446;18.912;2023-07-31T04:03:55;3.53;;;2.03;;
48367;SDS011;34173;47.446;18.912;2023-07-31T04:06:23;4.47;;;2.50;;
48367;SDS011;34173;47.446;18.912;2023-07-31T04:08:50;4.78;;;2.10;;
48367;SDS011;34173;47.446;18.912;2023-07-31T04:11:18;4.90;;;2.20;;
48367;SDS011;34173;47.446;18.912;2023-07-31T04:13:46;4.20;;;2.20;;
48367;SDS011;34173;47.446;18.912;2023-07-31T04:16:13;5.20;;;2.15;;
48367;SDS011;34173;47.446;18.912;2023-07-31T04:18:41;5.97;;;2.25;;
48367;SDS011;34173;47.446;18.912;2023-07-31T04:21:08;4.47;;;2.20;;
48367;SDS011;34173;47.446;18.912;2023-07-31T04:23:37;5.50;;;2.20;;
48367;SDS011;34173;47.446;18.912;2023-07-31T04:26:05;5.00;;;2.25;;
48367;SDS011;34173;47.446;18.912;2023-07-31T04:28:32;3.95;;;2.12;;
48367;SDS011;34173;47.446;18.912;2023-07-31T04:31:00;5.05;;;2.20;;
48367;SDS011;34173;47.446;18.912;2023-07-31T04:33:28;5.70;;;2.20;;
48367;SDS011;34173;47.446;18.912;2023-07-31T04:35:55;5.65;;;2.30;;
48367;SDS011;34173;47.446;18.912;2023-07-31T04:38:22;5.18;;;2.20;;
48367;SDS011;34173;47.446;18.912;2023-07-31T04:40:50;4.75;;;2.22;;
48367;SDS011;34173;47.446;18.912;2023-07-31T04:43:18;4.12;;;2.37;;
48367;SDS011;34173;47.446;18.912;2023-07-31T04:45:45;4.95;;;2.03;;
48367;SDS011;34173;47.446;18.912;2023-07-31T04:48:17;3.40;;;2.10;;
48367;SDS011;34173;47.446;18.912;2023-07-31T04:50:45;5.10;;;2.15;;
48367;SDS011;34173;47.446;18.912;2023-07-31T04:53:12;4.10;;;2.20;;
48367;SDS011;34173;47.446;18.912;2023-07-31T04:55:40;5.10;;;2.25;;
48367;SDS011;34173;47.446;18.912;2023-07-31T04:58:07;3.83;;;2.05;;
48367;SDS011;34173;47.446;18.912;2023-07-31T05:00:35;5.45;;;2.15;;
48367;SDS011;34173;47.446;18.912;2023-07-31T05:03:03;5.35;;;2.10;;
48367;SDS011;34173;47.446;18.912;2023-07-31T05:05:30;5.90;;;2.20;;
48367;SDS011;34173;47.446;18.912;2023-07-31T05:07:58;5.68;;;2.00;;
48367;SDS011;34173;47.446;18.912;2023-07-31T05:10:26;4.55;;;2.00;;
48367;SDS011;34173;47.446;18.912;2023-07-31T05:12:53;3.43;;;1.70;;
48367;SDS011;34173;47.446;18.912;2023-07-31T05:15:21;4.75;;;1.80;;
48367;SDS011;34173;47.446;18.912;2023-07-31T05:17:49;5.20;;;1.70;;
48367;SDS011;34173;47.446;18.912;2023-07-31T05:20:16;4.05;;;1.70;;
48367;SDS011;34173;47.446;18.912;2023-07-31T05:22:44;3.90;;;1.30;;
48367;SDS011;34173;47.446;18.912;2023-07-31T05:25:11;6.12;;;1.50;;
48367;SDS011;34173;47.446;18.912;2023-07-31T05:27:39;6.00;;;1.77;;
48367;SDS011;34173;47.446;18.912;2023-07-31T05:30:06;4.65;;;1.48;;
48367;SDS011;34173;47.446;18.912;2023-07-31T05:32:34;3.65;;;1.60;;
48367;SDS011;34173;47.446;18.912;2023-07-31T05:35:02;3.97;;;1.40;;
48367;SDS011;34173;47.446;18.912;2023-07-31T05:37:30;4.55;;;1.55;;
48367;SDS011;34173;47.446;18.912;2023-07-31T05:39:57;5.55;;;1.92;;
48367;SDS011;34173;47.446;18.912;2023-07-31T05:42:25;4.93;;;1.50;;
48367;SDS011;34173;47.446;18.912;2023-07-31T05:44:53;3.87;;;1.48;;
48367;SDS011;34173;47.446;18.912;2023-07-31T05:47:21;4.00;;;1.58;;
48367;SDS011;34173;47.446;18.912;2023-07-31T05:49:49;5.18;;;1.55;;
48367;SDS011;34173;47.446;18.912;2023-07-31T05:52:18;3.03;;;1.27;;
48367;SDS011;34173;47.446;18.912;2023-07-31T05:54:46;4.65;;;1.60;;
48367;SDS011;34173;47.446;18.912;2023-07-31T05:57:14;4.07;;;1.55;;
48367;SDS011;34173;47.446;18.912;2023-07-31T05:59:41;5.57;;;1.48;;
48367;SDS011;34173;47.446;18.912;2023-07-31T06:02:09;3.35;;;1.30;;
48367;SDS011;34173;47.446;18.912;2023-07-31T06:04:37;5.87;;;1.52;;
48367;SDS011;34173;47.446;18.912;2023-07-31T06:07:05;4.85;;;1.42;;
48367;SDS011;34173;47.446;18.912;2023-07-31T06:09:32;4.18;;;1.60;;
48367;SDS011;34173;47.446;18.912;2023-07-31T06:12:00;6.30;;;1.67;;
48367;SDS011;34173;47.446;18.912;2023-07-31T06:14:27;4.82;;;1.40;;
48367;SDS011;34173;47.446;18.912;2023-07-31T06:16:55;2.72;;;1.33;;
48367;SDS011;34173;47.446;18.912;2023-07-31T06:19:22;4.50;;;1.35;;
48367;SDS011;34173;47.446;18.912;2023-07-31T06:21:50;3.62;;;1.33;;
48367;SDS011;34173;47.446;18.912;2023-07-31T06:24:17;3.10;;;1.35;;
48367;SDS011;34173;47.446;18.912;2023-07-31T06:26:47;4.18;;;1.33;;
48367;SDS011;34173;47.446;18.912;2023-07-31T06:29:15;3.62;;;1.48;;
48367;SDS011;34173;47.446;18.912;2023-07-31T06:31:42;4.20;;;1.55;;
48367;SDS011;34173;47.446;18.912;2023-07-31T06:34:10;4.18;;;1.30;;
48367;SDS011;34173;47.446;18.912;2023-07-31T06:36:38;4.25;;;1.48;;
48367;SDS011;34173;47.446;18.912;2023-07-31T06:39:06;4.22;;;1.37;;
48367;SDS011;34173;47.446;18.912;2023-07-31T06:41:33;4.15;;;1.40;;
48367;SDS011;34173;47.446;18.912;2023-07-31T06:44:01;3.60;;;1.40;;
48367;SDS011;34173;47.446;18.912;2023-07-31T06:46:29;2.97;;;1.40;;
48367;SDS011;34173;47.446;18.912;2023-07-31T06:48:56;3.55;;;1.30;;
48367;SDS011;34173;47.446;18.912;2023-07-31T06:51:25;5.00;;;1.40;;
48367;SDS011;34173;47.446;18.912;2023-07-31T06:53:52;4.00;;;1.48;;
48367;SDS011;34173;47.446;18.912;2023-07-31T06:56:20;4.30;;;1.60;;
48367;SDS011;34173;47.446;18.912;2023-07-31T06:58:48;4.15;;;1.52;;
48367;SDS011;34173;47.446;18.912;2023-07-31T07:01:16;4.82;;;1.60;;
48367;SDS011;34173;47.446;18.912;2023-07-31T07:03:44;3.53;;;1.50;;
48367;SDS011;34173;47.446;18.912;2023-07-31T07:06:11;4.93;;;1.48;;
48367;SDS011;34173;47.446;18.912;2023-07-31T07:08:39;4.40;;;1.50;;
48367;SDS011;34173;47.446;18.912;2023-07-31T07:11:07;3.62;;;1.48;;
48367;SDS011;34173;47.446;18.912;2023-07-31T07:13:34;5.07;;;1.37;;
48367;SDS011;34173;47.446;18.912;2023-07-31T07:16:05;4.93;;;1.50;;
48367;SDS011;34173;47.446;18.912;2023-07-31T07:18:32;5.07;;;1.65;;
48367;SDS011;34173;47.446;18.912;2023-07-31T07:21:00;3.75;;;1.58;;
48367;SDS011;34173;47.446;18.912;2023-07-31T07:23:29;4.55;;;1.50;;
48367;SDS011;34173;47.446;18.912;2023-07-31T07:25:57;3.70;;;1.35;;
48367;SDS011;34173;47.446;18.912;2023-07-31T07:28:24;4.47;;;1.60;;
48367;SDS011;34173;47.446;18.912;2023-07-31T07:30:54;5.50;;;1.60;;
48367;SDS011;34173;47.446;18.912;2023-07-31T07:33:22;4.62;;;1.52;;
48367;SDS011;34173;47.446;18.912;2023-07-31T07:35:50;5.20;;;1.45;;
48367;SDS011;34173;47.446;18.912;2023-07-31T07:38:17;5.00;;;1.58;;
48367;SDS011;34173;47.446;18.912;2023-07-31T07:40:46;5.82;;;1.70;;
48367;SDS011;34173;47.446;18.912;2023-07-31T07:43:17;4.45;;;1.50;;
48367;SDS011;34173;47.446;18.912;2023-07-31T07:45:44;4.25;;;1.70;;
48367;SDS011;34173;47.446;18.912;2023-07-31T07:48:12;4.25;;;1.50;;
48367;SDS011;34173;47.446;18.912;2023-07-31T07:50:40;4.03;;;1.50;;
48367;SDS011;34173;47.446;18.912;2023-07-31T07:53:07;4.55;;;1.65;;
48367;SDS011;34173;47.446;18.912;2023-07-31T07:55:35;4.55;;;1.65;;
48367;SDS011;34173;47.446;18.912;2023-07-31T07:58:02;3.58;;;1.42;;
48367;SDS011;34173;47.446;18.912;2023-07-31T08:00:30;3.42;;;1.45;;
48367;SDS011;34173;47.446;18.912;2023-07-31T08:02:58;5.20;;;1.30;;
48367;SDS011;34173;47.446;18.912;2023-07-31T08:05:25;2.67;;;1.27;;
48367;SDS011;34173;47.446;18.912;2023-07-31T08:07:53;4.35;;;1.50;;
48367;SDS011;34173;47.446;18.912;2023-07-31T08:10:20;3.80;;;1.42;;
48367;SDS011;34173;47.446;18.912;2023-07-31T08:12:48;4.20;;;1.58;;
48367;SDS011;34173;47.446;18.912;2023-07-31T08:15:16;4.17;;;1.40;;
48367;SDS011;34173;47.446;18.912;2023-07-31T08:17:43;3.90;;;1.48;;
48367;SDS011;34173;47.446;18.912;2023-07-31T08:20:11;3.37;;;1.40;;
48367;SDS011;34173;47.446;18.912;2023-07-31T08:22:39;5.10;;;1.57;;
48367;SDS011;34173;47.446;18.912;2023-07-31T08:25:07;4.45;;;1.70;;
48367;SDS011;34173;47.446;18.912;2023-07-31T08:27:35;5.12;;;1.50;;
48367;SDS011;34173;47.446;18.912;2023-07-31T08:30:02;3.87;;;1.50;;
48367;SDS011;34173;47.446;18.912;2023-07-31T08:32:30;5.15;;;1.50;;
48367;SDS011;34173;47.446;18.912;2023-07-31T08:34:58;4.20;;;1.45;;
48367;SDS011;34173;47.446;18.912;2023-07-31T08:37:25;3.92;;;1.42;;
48367;SDS011;34173;47.446;18.912;2023-07-31T08:39:53;4.25;;;1.67;;
48367;SDS011;34173;47.446;18.912;2023-07-31T08:42:21;5.32;;;1.65;;
48367;SDS011;34173;47.446;18.912;2023-07-31T08:44:49;6.28;;;1.45;;
48367;SDS011;34173;47.446;18.912;2023-07-31T08:47:17;4.35;;;1.50;;
48367;SDS011;34173;47.446;18.912;2023-07-31T08:49:46;3.72;;;1.50;;
48367;SDS011;34173;47.446;18.912;2023-07-31T08:52:14;3.60;;;1.33;;
48367;SDS011;34173;47.446;18.912;2023-07-31T08:54:42;4.03;;;1.30;;
48367;SDS011;34173;47.446;18.912;2023-07-31T08:57:10;4.82;;;1.37;;
48367;SDS011;34173;47.446;18.912;2023-07-31T08:59:38;4.45;;;1.40;;
48367;SDS011;34173;47.446;18.912;2023-07-31T09:02:07;4.43;;;1.60;;
48367;SDS011;34173;47.446;18.912;2023-07-31T09:04:35;4.13;;;1.50;;
48367;SDS011;34173;47.446;18.912;2023-07-31T09:07:03;5.13;;;1.57;;
48367;SDS011;34173;47.446;18.912;2023-07-31T09:09:32;4.95;;;1.50;;
48367;SDS011;34173;47.446;18.912;2023-07-31T09:12:00;3.95;;;1.40;;
48367;SDS011;34173;47.446;18.912;2023-07-31T09:14:28;6.65;;;1.60;;
48367;SDS011;34173;47.446;18.912;2023-07-31T09:16:56;3.90;;;1.48;;
48367;SDS011;34173;47.446;18.912;2023-07-31T09:19:35;3.83;;;1.20;;
48367;SDS011;34173;47.446;18.912;2023-07-31T09:22:07;2.87;;;1.20;;
48367;SDS011;34173;47.446;18.912;2023-07-31T09:24:34;3.62;;;1.20;;
48367;SDS011;34173;47.446;18.912;2023-07-31T09:27:02;4.90;;;1.48;;
48367;SDS011;34173;47.446;18.912;2023-07-31T09:29:30;3.40;;;1.30;;
48367;SDS011;34173;47.446;18.912;2023-07-31T09:31:57;3.17;;;1.20;;
48367;SDS011;34173;47.446;18.912;2023-07-31T09:34:30;3.75;;;1.40;;
48367;SDS011;34173;47.446;18.912;2023-07-31T09:37:04;4.25;;;1.33;;
48367;SDS011;34173;47.446;18.912;2023-07-31T09:39:32;3.12;;;1.12;;
48367;SDS011;34173;47.446;18.912;2023-07-31T09:42:13;4.57;;;1.42;;
48367;SDS011;34173;47.446;18.912;2023-07-31T09:44:40;4.93;;;1.37;;
48367;SDS011;34173;47.446;18.912;2023-07-31T09:47:22;3.60;;;1.30;;
48367;SDS011;34173;47.446;18.912;2023-07-31T09:49:54;3.87;;;1.30;;
48367;SDS011;34173;47.446;18.912;2023-07-31T09:52:22;3.75;;;1.30;;
48367;SDS011;34173;47.446;18.912;2023-07-31T09:54:49;3.42;;;1.20;;
48367;SDS011;34173;47.446;18.912;2023-07-31T09:57:17;3.90;;;1.30;;
48367;SDS011;34173;47.446;18.912;2023-07-31T09:59:47;3.37;;;1.10;;
48367;SDS011;34173;47.446;18.912;2023-07-31T10:02:15;4.30;;;1.42;;
48367;SDS011;34173;47.446;18.912;2023-07-31T10:04:50;3.50;;;1.10;;
48367;SDS011;34173;47.446;18.912;2023-07-31T10:07:18;4.35;;;1.45;;
48367;SDS011;34173;47.446;18.912;2023-07-31T10:09:47;4.45;;;1.23;;
48367;SDS011;34173;47.446;18.912;2023-07-31T10:12:15;5.07;;;1.30;;
48367;SDS011;34173;47.446;18.912;2023-07-31T10:14:43;2.70;;;1.10;;
48367;SDS011;34173;47.446;18.912;2023-07-31T10:17:11;4.00;;;1.40;;
48367;SDS011;34173;47.446;18.912;2023-07-31T10:19:39;4.05;;;1.15;;
48367;SDS011;34173;47.446;18.912;2023-07-31T10:22:07;4.33;;;1.30;;
48367;SDS011;34173;47.446;18.912;2023-07-31T10:24:39;4.60;;;1.20;;
48367;SDS011;34173;47.446;18.912;2023-07-31T10:27:09;3.08;;;1.05;;
48367;SDS011;34173;47.446;18.912;2023-07-31T10:29:37;3.95;;;1.20;;
48367;SDS011;34173;47.446;18.912;2023-07-31T10:32:09;4.60;;;1.30;;
48367;SDS011;34173;47.446;18.912;2023-07-31T10:34:38;4.40;;;1.30;;
48367;SDS011;34173;47.446;18.912;2023-07-31T10:37:26;5.05;;;1.20;;
48367;SDS011;34173;47.446;18.912;2023-07-31T10:39:59;3.37;;;1.20;;
48367;SDS011;34173;47.446;18.912;2023-07-31T10:42:38;5.70;;;1.10;;
48367;SDS011;34173;47.446;18.912;2023-07-31T10:45:14;4.70;;;1.20;;
48367;SDS011;34173;47.446;18.912;2023-07-31T10:48:01;5.07;;;1.12;;
48367;SDS011;34173;47.446;18.912;2023-07-31T10:50:30;4.57;;;1.20;;
48367;SDS011;34173;47.446;18.912;2023-07-31T10:53:02;3.20;;;1.08;;
48367;SDS011;34173;47.446;18.912;2023-07-31T10:55:31;4.75;;;1.30;;
48367;SDS011;34173;47.446;18.912;2023-07-31T10:58:06;3.95;;;1.02;;
48367;SDS011;34173;47.446;18.912;2023-07-31T11:00:40;4.30;;;1.20;;
48367;SDS011;34173;47.446;18.912;2023-07-31T11:03:09;4.75;;;1.12;;
48367;SDS011;34173;47.446;18.912;2023-07-31T11:10:44;3.90;;;1.23;;
48367;SDS011;34173;47.446;18.912;2023-07-31T11:13:12;3.45;;;0.93;;
48367;SDS011;34173;47.446;18.912;2023-07-31T11:15:39;3.25;;;1.10;;
48367;SDS011;34173;47.446;18.912;2023-07-31T11:18:08;3.33;;;1.00;;
48367;SDS011;34173;47.446;18.912;2023-07-31T11:20:37;3.15;;;1.20;;
48367;SDS011;34173;47.446;18.912;2023-07-31T11:23:07;3.28;;;0.90;;
48367;SDS011;34173;47.446;18.912;2023-07-31T11:25:36;5.20;;;1.20;;
48367;SDS011;34173;47.446;18.912;2023-07-31T11:28:08;4.15;;;1.10;;
48367;SDS011;34173;47.446;18.912;2023-07-31T11:30:37;4.03;;;1.12;;
48367;SDS011;34173;47.446;18.912;2023-07-31T11:33:06;4.90;;;1.20;;
48367;SDS011;34173;47.446;18.912;2023-07-31T11:35:35;5.03;;;1.10;;
48367;SDS011;34173;47.446;18.912;2023-07-31T11:38:03;5.00;;;1.20;;
48367;SDS011;34173;47.446;18.912;2023-07-31T11:40:31;4.72;;;1.23;;
48367;SDS011;34173;47.446;18.912;2023-07-31T11:43:02;3.40;;;1.10;;
48367;SDS011;34173;47.446;18.912;2023-07-31T11:45:31;3.22;;;1.00;;
48367;SDS011;34173;47.446;18.912;2023-07-31T11:47:59;3.20;;;1.20;;
48367;SDS011;34173;47.446;18.912;2023-07-31T11:50:28;3.45;;;1.00;;
48367;SDS011;34173;47.446;18.912;2023-07-31T11:52:57;3.30;;;1.17;;
48367;SDS011;34173;47.446;18.912;2023-07-31T11:55:27;3.87;;;1.20;;
48367;SDS011;34173;47.446;18.912;2023-07-31T11:57:56;5.07;;;1.25;;
48367;SDS011;34173;47.446;18.912;2023-07-31T12:00:25;4.05;;;0.90;;
48367;SDS011;34173;47.446;18.912;2023-07-31T12:02:54;3.72;;;1.08;;
48367;SDS011;34173;47.446;18.912;2023-07-31T12:05:21;4.12;;;1.10;;
48367;SDS011;34173;47.446;18.912;2023-07-31T12:07:53;4.53;;;1.00;;
48367;SDS011;34173;47.446;18.912;2023-07-31T12:10:23;3.30;;;1.20;;
48367;SDS011;34173;47.446;18.912;2023-07-31T12:12:55;4.10;;;1.20;;
48367;SDS011;34173;47.446;18.912;2023-07-31T12:15:29;4.60;;;1.02;;
48367;SDS011;34173;47.446;18.912;2023-07-31T12:18:00;4.05;;;1.00;;
48367;SDS011;34173;47.446;18.912;2023-07-31T12:20:31;3.60;;;1.15;;
48367;SDS011;34173;47.446;18.912;2023-07-31T12:22:59;4.10;;;1.10;;
48367;SDS011;34173;47.446;18.912;2023-07-31T12:25:31;4.62;;;1.20;;
48367;SDS011;34173;47.446;18.912;2023-07-31T12:28:06;3.93;;;1.10;;
48367;SDS011;34173;47.446;18.912;2023-07-31T12:30:39;4.05;;;1.00;;
48367;SDS011;34173;47.446;18.912;2023-07-31T12:33:12;4.37;;;1.23;;
48367;SDS011;34173;47.446;18.912;2023-07-31T12:35:43;4.80;;;1.20;;
48367;SDS011;34173;47.446;18.912;2023-07-31T12:38:12;3.20;;;1.23;;
48367;SDS011;34173;47.446;18.912;2023-07-31T12:40:40;4.45;;;1.15;;
48367;SDS011;34173;47.446;18.912;2023-07-31T12:43:08;3.73;;;1.00;;
48367;SDS011;34173;47.446;18.912;2023-07-31T12:45:36;3.87;;;1.20;;
48367;SDS011;34173;47.446;18.912;2023-07-31T12:48:04;4.53;;;1.20;;
48367;SDS011;34173;47.446;18.912;2023-07-31T12:50:32;3.40;;;1.20;;
48367;SDS011;34173;47.446;18.912;2023-07-31T12:52:59;3.58;;;1.30;;
48367;SDS011;34173;47.446;18.912;2023-07-31T12:55:27;4.30;;;1.30;;
48367;SDS011;34173;47.446;18.912;2023-07-31T12:57:54;3.92;;;1.10;;
48367;SDS011;34173;47.446;18.912;2023-07-31T13:00:22;3.55;;;1.00;;
48367;SDS011;34173;47.446;18.912;2023-07-31T13:02:50;4.43;;;1.20;;
48367;SDS011;34173;47.446;18.912;2023-07-31T13:05:18;4.12;;;1.20;;
48367;SDS011;34173;47.446;18.912;2023-07-31T13:07:47;3.97;;;1.15;;
48367;SDS011;34173;47.446;18.912;2023-07-31T13:10:18;5.07;;;1.35;;
48367;SDS011;34173;47.446;18.912;2023-07-31T13:12:46;4.07;;;1.20;;
48367;SDS011;34173;47.446;18.912;2023-07-31T13:15:14;5.03;;;1.15;;
48367;SDS011;34173;47.446;18.912;2023-07-31T13:17:42;3.95;;;1.17;;
48367;SDS011;34173;47.446;18.912;2023-07-31T13:20:09;3.87;;;1.27;;
48367;SDS011;34173;47.446;18.912;2023-07-31T13:22:37;3.47;;;1.10;;
48367;SDS011;34173;47.446;18.912;2023-07-31T13:25:05;4.27;;;1.10;;
48367;SDS011;34173;47.446;18.912;2023-07-31T13:27:33;5.12;;;1.23;;
48367;SDS011;34173;47.446;18.912;2023-07-31T13:30:02;3.55;;;1.02;;
48367;SDS011;34173;47.446;18.912;2023-07-31T13:32:30;4.40;;;1.30;;
48367;SDS011;34173;47.446;18.912;2023-07-31T13:34:59;3.73;;;1.10;;
48367;SDS011;34173;47.446;18.912;2023-07-31T13:37:26;3.57;;;1.07;;
48367;SDS011;34173;47.446;18.912;2023-07-31T13:39:54;3.58;;;1.27;;
48367;SDS011;34173;47.446;18.912;2023-07-31T13:42:21;3.42;;;1.20;;
48367;SDS011;34173;47.446;18.912;2023-07-31T13:44:49;5.05;;;1.27;;
48367;SDS011;34173;47.446;18.912;2023-07-31T13:47:17;5.05;;;1.27;;
48367;SDS011;34173;47.446;18.912;2023-07-31T13:49:45;5.05;;;1.27;;
48367;SDS011;34173;47.446;18.912;2023-07-31T13:52:13;2.55;;;1.10;;
48367;SDS011;34173;47.446;18.912;2023-07-31T13:54:40;4.00;;;1.20;;
48367;SDS011;34173;47.446;18.912;2023-07-31T13:57:09;4.85;;;1.60;;
48367;SDS011;34173;47.446;18.912;2023-07-31T13:59:37;4.05;;;1.30;;
48367;SDS011;34173;47.446;18.912;2023-07-31T14:02:05;5.78;;;1.70;;
48367;SDS011;34173;47.446;18.912;2023-07-31T14:04:33;7.70;;;2.40;;
48367;SDS011;34173;47.446;18.912;2023-07-31T14:07:00;7.60;;;2.07;;
48367;SDS011;34173;47.446;18.912;2023-07-31T14:09:28;4.10;;;1.50;;
48367;SDS011;34173;47.446;18.912;2023-07-31T14:11:57;4.90;;;1.65;;
48367;SDS011;34173;47.446;18.912;2023-07-31T14:14:24;6.90;;;2.80;;
48367;SDS011;34173;47.446;18.912;2023-07-31T14:16:52;8.13;;;2.80;;
48367;SDS011;34173;47.446;18.912;2023-07-31T14:19:20;5.43;;;1.52;;
48367;SDS011;34173;47.446;18.912;2023-07-31T14:21:48;7.50;;;2.65;;
48367;SDS011;34173;47.446;18.912;2023-07-31T14:24:35;5.18;;;1.98;;
48367;SDS011;34173;47.446;18.912;2023-07-31T14:27:03;6.85;;;2.47;;
48367;SDS011;34173;47.446;18.912;2023-07-31T14:29:31;6.87;;;2.30;;
48367;SDS011;34173;47.446;18.912;2023-07-31T14:31:58;6.32;;;2.00;;
48367;SDS011;34173;47.446;18.912;2023-07-31T14:34:27;5.22;;;1.60;;
48367;SDS011;34173;47.446;18.912;2023-07-31T14:36:56;5.00;;;1.55;;
48367;SDS011;34173;47.446;18.912;2023-07-31T14:39:23;4.47;;;1.40;;
48367;SDS011;34173;47.446;18.912;2023-07-31T14:41:51;4.12;;;1.33;;
48367;SDS011;34173;47.446;18.912;2023-07-31T14:44:18;2.97;;;1.00;;
48367;SDS011;34173;47.446;18.912;2023-07-31T14:46:46;4.03;;;1.40;;